Time;durP1;ratioP1;P1;durP2;ratioP2;P2;SDS_P1;SDS_P2;PMS_P1;PMS_P2;Temp;Humidity;BMP_temperature;BMP_pressure;BME280_temperature;BME280_humidity;BME280_pressure;Samples;Min_cycle;Max_cycle;Signal;HPM_P1;HPM_P2
2023/09/10 00:01:06;;;;;;;13.02;8.55;;;;;;;;;;4834326;29;20698;-90
2023/09/10 00:04:17;;;;;;;14.25;8.40;;;;;;;;;;4844018;29;20337;-90
2023/09/10 00:07:28;;;;;;;13.52;8.27;;;;;;;;;;4833750;29;20207;-91
2023/09/10 00:10:41;;;;;;;14.70;9.05;;;;;;;;;;4833168;29;20659;-90
2023/09/10 00:13:54;;;;;;;13.77;7.85;;;;;;;;;;4834046;29;20231;-91
2023/09/10 00:17:06;;;;;;;14.23;7.82;;;;;;;;;;4843093;29;20222;-90
2023/09/10 00:20:18;;;;;;;12.55;7.35;;;;;;;;;;4833304;29;20207;-90
2023/09/10 00:23:30;;;;;;;13.90;7.95;;;;;;;;;;4833850;29;20200;-91
2023/09/10 00:26:40;;;;;;;14.57;8.05;;;;;;;;;;4837044;29;20190;-90
2023/09/10 00:29:54;;;;;;;14.20;7.88;;;;;;;;;;4837855;29;20211;-92
2023/09/10 00:33:06;;;;;;;11.63;7.20;;;;;;;;;;4847409;29;20223;-90
2023/09/10 00:36:18;;;;;;;12.32;7.30;;;;;;;;;;4837661;29;20195;-91
2023/09/10 00:39:29;;;;;;;14.45;7.95;;;;;;;;;;4837210;29;20235;-90
2023/09/10 00:42:41;;;;;;;15.07;8.15;;;;;;;;;;4837651;29;20199;-92
2023/09/10 00:45:54;;;;;;;12.48;7.80;;;;;;;;;;4837060;29;20199;-91
2023/09/10 00:49:06;;;;;;;12.73;7.50;;;;;;;;;;4837719;29;20290;-91
2023/09/10 00:52:18;;;;;;;13.68;7.95;;;;;;;;;;4846843;29;20268;-90
2023/09/10 00:55:32;;;;;;;14.68;7.80;;;;;;;;;;4843070;29;20276;-89
2023/09/10 00:58:44;;;;;;;11.68;7.50;;;;;;;;;;4845687;29;20207;-90
2023/09/10 01:01:59;;;;;;;12.32;7.15;;;;;;;;;;4845875;29;20199;-89
2023/09/10 01:05:10;;;;;;;14.00;7.80;;;;;;;;;;4846763;29;20199;-90
2023/09/10 01:08:22;;;;;;;11.90;6.82;;;;;;;;;;4836298;29;20219;-90
2023/09/10 01:11:44;;;;;;;13.02;7.95;;;;;;;;;;4833571;29;20306;-91
2023/09/10 01:15:02;;;;;;;13.63;8.57;;;;;;;;;;4832492;29;20275;-88
2023/09/10 01:18:20;;;;;;;16.67;8.07;;;;;;;;;;4832914;29;20232;-91
2023/09/10 01:21:42;;;;;;;12.80;8.20;;;;;;;;;;4833272;29;20224;-90
2023/09/10 01:24:57;;;;;;;13.45;7.40;;;;;;;;;;4832333;29;20704;-90
2023/09/10 01:28:09;;;;;;;14.68;7.70;;;;;;;;;;4836907;29;20183;-91
2023/09/10 01:31:19;;;;;;;15.02;8.65;;;;;;;;;;4843980;24;20267;-89
2023/09/10 01:34:33;;;;;;;13.32;7.68;;;;;;;;;;4834629;29;20224;-89
2023/09/10 01:37:47;;;;;;;18.08;8.30;;;;;;;;;;4834489;29;20671;-89
2023/09/10 01:41:04;;;;;;;13.80;7.40;;;;;;;;;;4838119;29;20200;-89
2023/09/10 01:44:16;;;;;;;15.27;8.45;;;;;;;;;;4838423;29;20219;-88
2023/09/10 01:47:28;;;;;;;15.13;8.48;;;;;;;;;;4840296;29;20226;-88
2023/09/10 01:50:41;;;;;;;14.07;8.15;;;;;;;;;;4838247;29;20210;-90
2023/09/10 01:53:53;;;;;;;13.70;7.55;;;;;;;;;;4836258;29;20285;-91
2023/09/10 01:57:06;;;;;;;13.70;7.93;;;;;;;;;;4832558;29;20281;-90
2023/09/10 02:00:18;;;;;;;13.80;7.18;;;;;;;;;;4830876;29;20304;-88
2023/09/10 02:03:30;;;;;;;12.85;7.93;;;;;;;;;;4812559;29;20199;-90
2023/09/10 02:06:42;;;;;;;13.38;7.38;;;;;;;;;;4830226;29;20199;-89
2023/09/10 02:09:54;;;;;;;11.73;7.10;;;;;;;;;;4832136;29;20233;-89
2023/09/10 02:13:07;;;;;;;13.55;7.40;;;;;;;;;;4832042;29;20192;-90
2023/09/10 02:16:19;;;;;;;12.00;7.47;;;;;;;;;;4830819;29;20231;-89
2023/09/10 02:19:31;;;;;;;12.98;7.80;;;;;;;;;;4830619;29;20575;-90
2023/09/10 02:22:43;;;;;;;13.23;7.40;;;;;;;;;;4830876;29;20184;-90
2023/09/10 02:25:54;;;;;;;12.05;7.38;;;;;;;;;;4830893;29;20318;-89
2023/09/10 02:29:07;;;;;;;12.95;8.35;;;;;;;;;;4830885;29;20361;-89
2023/09/10 02:32:19;;;;;;;14.63;7.63;;;;;;;;;;4831486;29;20208;-90
2023/09/10 02:35:33;;;;;;;15.32;7.90;;;;;;;;;;4831150;29;20219;-91
2023/09/10 02:38:44;;;;;;;14.55;8.23;;;;;;;;;;4812261;29;20207;-89
2023/09/10 02:41:56;;;;;;;14.90;7.80;;;;;;;;;;4831547;29;20249;-91
2023/09/10 02:45:10;;;;;;;18.55;7.75;;;;;;;;;;4830643;29;20203;-87
2023/09/10 02:48:21;;;;;;;12.10;7.32;;;;;;;;;;4830419;29;20199;-90
2023/09/10 02:51:33;;;;;;;11.85;7.85;;;;;;;;;;4831221;29;20200;-88
2023/09/10 02:54:45;;;;;;;12.98;7.47;;;;;;;;;;4831668;29;20285;-90
2023/09/10 02:57:56;;;;;;;15.93;7.60;;;;;;;;;;4831470;29;20228;-89
2023/09/10 03:01:09;;;;;;;14.48;7.82;;;;;;;;;;4830967;29;20204;-91
2023/09/10 03:04:21;;;;;;;12.63;7.63;;;;;;;;;;4831220;29;20201;-90
2023/09/10 03:07:33;;;;;;;12.15;7.13;;;;;;;;;;4832433;29;20223;-91
2023/09/10 03:10:44;;;;;;;13.90;7.60;;;;;;;;;;4833253;29;20220;-88
2023/09/10 03:13:56;;;;;;;11.63;7.85;;;;;;;;;;4831053;29;20268;-89
2023/09/10 03:17:10;;;;;;;16.08;7.53;;;;;;;;;;4831056;29;20322;-91
2023/09/10 03:20:22;;;;;;;13.70;7.95;;;;;;;;;;4830643;29;20232;-91
2023/09/10 03:23:34;;;;;;;13.20;8.10;;;;;;;;;;4831681;29;20216;-91
2023/09/10 03:26:45;;;;;;;13.05;7.60;;;;;;;;;;4812345;29;20204;-91
2023/09/10 03:29:57;;;;;;;15.23;7.82;;;;;;;;;;4832377;29;20215;-90
2023/09/10 03:33:10;;;;;;;15.32;8.55;;;;;;;;;;4834897;29;20191;-89
2023/09/10 03:36:22;;;;;;;12.35;7.60;;;;;;;;;;4834081;29;20227;-91
2023/09/10 03:39:34;;;;;;;14.30;7.68;;;;;;;;;;4834480;29;20788;-92
2023/09/10 03:42:46;;;;;;;12.00;7.13;;;;;;;;;;4834241;29;20249;-91
2023/09/10 03:45:58;;;;;;;15.45;7.65;;;;;;;;;;4817865;29;20184;-90
2023/09/10 03:49:11;;;;;;;11.05;6.78;;;;;;;;;;4840660;29;20203;-90
2023/09/10 03:52:24;;;;;;;15.27;7.82;;;;;;;;;;4821385;29;20192;-92
2023/09/10 03:55:35;;;;;;;13.63;7.72;;;;;;;;;;4839624;29;20303;-89
2023/09/10 03:58:50;;;;;;;12.20;7.30;;;;;;;;;;4838725;29;20200;-88
2023/09/10 04:02:02;;;;;;;14.68;7.68;;;;;;;;;;4835323;29;20349;-91
2023/09/10 04:05:16;;;;;;;14.25;7.97;;;;;;;;;;4819544;29;20219;-92
2023/09/10 04:08:28;;;;;;;13.45;7.50;;;;;;;;;;4838972;29;20261;-90
2023/09/10 04:11:40;;;;;;;11.90;7.47;;;;;;;;;;4839051;29;20247;-89
2023/09/10 04:14:52;;;;;;;15.57;7.80;;;;;;;;;;4836333;29;20196;-92
2023/09/10 04:18:05;;;;;;;13.95;8.45;;;;;;;;;;4836589;29;20727;-90
2023/09/10 04:21:18;;;;;;;14.15;8.18;;;;;;;;;;4833221;29;20203;-90
2023/09/10 04:24:30;;;;;;;16.52;8.02;;;;;;;;;;4831940;29;20337;-91
2023/09/10 04:27:42;;;;;;;14.50;7.80;;;;;;;;;;4833998;29;20222;-89
2023/09/10 04:30:53;;;;;;;15.05;8.15;;;;;;;;;;4834749;29;20306;-92
2023/09/10 04:34:07;;;;;;;16.95;8.60;;;;;;;;;;4834085;29;20204;-90
2023/09/10 04:37:20;;;;;;;15.73;7.97;;;;;;;;;;4835912;29;20225;-91
2023/09/10 04:40:32;;;;;;;12.55;8.10;;;;;;;;;;4834187;29;20209;-88
2023/09/10 04:43:44;;;;;;;15.30;8.45;;;;;;;;;;4834194;29;20245;-91
2023/09/10 04:46:55;;;;;;;15.63;7.43;;;;;;;;;;4833302;29;20196;-90
2023/09/10 04:50:08;;;;;;;13.45;7.70;;;;;;;;;;4833883;29;20342;-90
2023/09/10 04:53:21;;;;;;;10.90;7.40;;;;;;;;;;4832661;29;20676;-88
2023/09/10 04:56:33;;;;;;;16.42;8.43;;;;;;;;;;4832616;29;20223;-90
2023/09/10 04:59:45;;;;;;;17.23;7.85;;;;;;;;;;4833307;29;20247;-90
2023/09/10 05:02:57;;;;;;;15.23;7.97;;;;;;;;;;4833905;29;20252;-90
2023/09/10 05:06:08;;;;;;;11.73;7.60;;;;;;;;;;4833541;29;20196;-91
2023/09/10 05:09:21;;;;;;;19.60;7.78;;;;;;;;;;4831251;29;20245;-92
2023/09/10 05:12:33;;;;;;;12.82;7.95;;;;;;;;;;4831966;29;20200;-89
2023/09/10 05:15:46;;;;;;;12.27;7.50;;;;;;;;;;4831464;29;20248;-90
2023/09/10 05:18:58;;;;;;;12.90;7.40;;;;;;;;;;4831667;29;20757;-90
2023/09/10 05:22:09;;;;;;;12.07;7.40;;;;;;;;;;4833153;29;20249;-89
2023/09/10 05:25:24;;;;;;;15.00;7.28;;;;;;;;;;4834463;29;20217;-90
2023/09/10 05:28:36;;;;;;;11.55;7.28;;;;;;;;;;4842260;29;20203;-89
2023/09/10 05:31:47;;;;;;;13.65;7.53;;;;;;;;;;4812819;29;20334;-88
2023/09/10 05:34:59;;;;;;;15.27;6.68;;;;;;;;;;4831612;29;20200;-89
2023/09/10 05:38:11;;;;;;;11.43;7.18;;;;;;;;;;4833559;29;20188;-91
2023/09/10 05:41:24;;;;;;;9.75;6.05;;;;;;;;;;4832669;29;20228;-89
2023/09/10 05:44:36;;;;;;;12.20;6.55;;;;;;;;;;4832499;29;20196;-91
2023/09/10 05:47:48;;;;;;;12.38;6.55;;;;;;;;;;4813750;29;20322;-89
2023/09/10 05:51:00;;;;;;;10.38;6.75;;;;;;;;;;4832254;29;20199;-89
2023/09/10 05:54:14;;;;;;;13.27;7.88;;;;;;;;;;4832710;29;20200;-90
2023/09/10 05:57:26;;;;;;;11.70;7.57;;;;;;;;;;4831827;29;20231;-89
2023/09/10 06:00:38;;;;;;;12.95;7.32;;;;;;;;;;4830899;29;20204;-90
2023/09/10 06:03:49;;;;;;;12.43;7.82;;;;;;;;;;4831984;29;20269;-91
2023/09/10 06:07:03;;;;;;;13.43;7.45;;;;;;;;;;4832774;29;20322;-91
2023/09/10 06:10:16;;;;;;;10.65;6.80;;;;;;;;;;4831140;29;20203;-89
2023/09/10 06:13:30;;;;;;;10.68;6.63;;;;;;;;;;4831832;29;20200;-90
2023/09/10 06:16:42;;;;;;;14.68;6.30;;;;;;;;;;4832195;29;20325;-90
2023/09/10 06:19:54;;;;;;;11.65;6.25;;;;;;;;;;4832755;29;20180;-91
2023/09/10 06:23:06;;;;;;;11.25;7.38;;;;;;;;;;4832469;29;20253;-91
2023/09/10 06:26:18;;;;;;;11.93;6.47;;;;;;;;;;4831949;29;20272;-89
2023/09/10 06:29:30;;;;;;;10.02;6.25;;;;;;;;;;4832751;29;20806;-90
2023/09/10 06:32:42;;;;;;;11.27;6.80;;;;;;;;;;4813943;29;20192;-89
2023/09/10 06:35:54;;;;;;;13.05;6.60;;;;;;;;;;4831899;29;20364;-91
2023/09/10 06:39:06;;;;;;;10.93;6.75;;;;;;;;;;4833886;29;20253;-92
2023/09/10 06:42:18;;;;;;;10.65;6.60;;;;;;;;;;4833563;29;20249;-88
2023/09/10 06:45:46;;;;;;;10.88;6.47;;;;;;;;;;4841046;29;20284;-89
2023/09/10 06:48:58;;;;;;;13.77;7.18;;;;;;;;;;4834942;29;20563;-90
2023/09/10 06:52:10;;;;;;;13.73;7.15;;;;;;;;;;4836695;29;20216;-90
2023/09/10 06:55:23;;;;;;;11.38;7.28;;;;;;;;;;4837238;29;20558;-91
2023/09/10 06:58:35;;;;;;;11.55;7.65;;;;;;;;;;4815273;29;20206;-90
2023/09/10 07:01:49;;;;;;;11.73;7.13;;;;;;;;;;4835230;29;20233;-92
2023/09/10 07:05:03;;;;;;;13.32;7.60;;;;;;;;;;4837919;29;20207;-88
2023/09/10 07:08:15;;;;;;;14.25;7.68;;;;;;;;;;4820052;29;20208;-89
2023/09/10 07:11:27;;;;;;;12.27;7.75;;;;;;;;;;4837943;29;20200;-89
2023/09/10 07:14:39;;;;;;;12.90;7.95;;;;;;;;;;4838037;29;20204;-90
2023/09/10 07:17:53;;;;;;;11.50;7.35;;;;;;;;;;4836601;29;20216;-89
2023/09/10 07:21:05;;;;;;;11.10;7.13;;;;;;;;;;4839271;29;20187;-89
2023/09/10 07:24:17;;;;;;;11.00;7.05;;;;;;;;;;4836226;29;20200;-89
2023/09/10 07:27:29;;;;;;;13.40;6.88;;;;;;;;;;4838777;29;20465;-92
2023/09/10 07:30:41;;;;;;;11.73;6.93;;;;;;;;;;4839088;29;20462;-89
2023/09/10 07:33:55;;;;;;;9.93;7.38;;;;;;;;;;4840462;29;20572;-90
2023/09/10 07:37:06;;;;;;;10.98;7.18;;;;;;;;;;4836199;29;20362;-91
2023/09/10 07:40:18;;;;;;;14.55;7.80;;;;;;;;;;4836494;29;20218;-90
2023/09/10 07:43:30;;;;;;;11.98;6.70;;;;;;;;;;4837634;29;20208;-90
2023/09/10 07:46:41;;;;;;;11.18;7.60;;;;;;;;;;4836083;29;20204;-91
2023/09/10 07:49:54;;;;;;;11.35;7.30;;;;;;;;;;4838431;29;20677;-91
2023/09/10 07:53:06;;;;;;;10.65;6.65;;;;;;;;;;4840280;29;20207;-87
2023/09/10 07:56:18;;;;;;;10.38;6.30;;;;;;;;;;4819450;29;20220;-89
2023/09/10 07:59:32;;;;;;;9.38;6.30;;;;;;;;;;4838621;29;20261;-89
2023/09/10 08:02:43;;;;;;;9.77;6.10;;;;;;;;;;4838742;29;20268;-88
2023/09/10 08:05:56;;;;;;;10.85;6.35;;;;;;;;;;4838042;29;20253;-89
2023/09/10 08:09:07;;;;;;;7.28;5.43;;;;;;;;;;4839251;29;20209;-91
2023/09/10 08:12:19;;;;;;;10.25;5.72;;;;;;;;;;4838537;29;20191;-93
2023/09/10 08:15:32;;;;;;;10.20;6.25;;;;;;;;;;4836157;29;20238;-89
2023/09/10 08:18:42;;;;;;;7.70;5.88;;;;;;;;;;4838391;29;20184;-92
2023/09/10 08:21:55;;;;;;;12.82;6.55;;;;;;;;;;4837593;29;20249;-89
2023/09/10 08:25:09;;;;;;;9.55;5.75;;;;;;;;;;4836121;29;20200;-91
2023/09/10 08:28:25;;;;;;;7.97;5.47;;;;;;;;;;4837893;29;20199;-91
2023/09/10 08:31:39;;;;;;;7.85;5.90;;;;;;;;;;4839195;29;20212;-91
2023/09/10 08:34:51;;;;;;;9.77;6.05;;;;;;;;;;4820270;29;20195;-92
2023/09/10 08:38:05;;;;;;;8.65;5.60;;;;;;;;;;4838919;29;20222;-92
2023/09/10 08:41:21;;;;;;;7.35;5.30;;;;;;;;;;4838133;29;20195;-91
2023/09/10 08:44:38;;;;;;;10.98;7.43;;;;;;;;;;4838230;29;20184;-90
2023/09/10 08:47:49;;;;;;;10.02;5.20;;;;;;;;;;4838604;29;20196;-91
2023/09/10 08:51:01;;;;;;;13.23;6.00;;;;;;;;;;4838775;29;20302;-91
2023/09/10 08:54:14;;;;;;;10.70;6.00;;;;;;;;;;4838060;29;20200;-91
2023/09/10 08:57:27;;;;;;;9.55;5.85;;;;;;;;;;4836980;29;20381;-91
2023/09/10 09:00:38;;;;;;;10.10;5.78;;;;;;;;;;4836599;29;20310;-90
2023/09/10 09:03:50;;;;;;;7.95;5.78;;;;;;;;;;4838027;29;20194;-90
2023/09/10 09:07:04;;;;;;;10.85;5.75;;;;;;;;;;4837982;29;20207;-92
2023/09/10 09:10:20;;;;;;;11.10;5.50;;;;;;;;;;4838316;29;20191;-92
2023/09/10 09:13:35;;;;;;;8.38;5.72;;;;;;;;;;4837170;29;20199;-91
2023/09/10 09:16:47;;;;;;;10.02;5.30;;;;;;;;;;4837532;29;20711;-88
2023/09/10 09:20:00;;;;;;;9.40;5.22;;;;;;;;;;4836501;29;20195;-90
2023/09/10 10:38:11;;;;;;;9.23;4.20;;;;;;;;;;5179909;24;20276;-90
2023/09/10 10:41:25;;;;;;;7.03;4.50;;;;;;;;;;4790884;30;20285;-93
2023/09/10 10:44:38;;;;;;;8.63;4.80;;;;;;;;;;4802278;29;20247;-91
2023/09/10 10:47:51;;;;;;;5.18;4.13;;;;;;;;;;4801542;29;20229;-90
2023/09/10 10:51:03;;;;;;;7.13;4.90;;;;;;;;;;4803323;30;20204;-92
2023/09/10 10:54:17;;;;;;;8.35;5.20;;;;;;;;;;4803416;29;20619;-90
2023/09/10 10:57:29;;;;;;;8.68;5.10;;;;;;;;;;4800045;30;20193;-92
2023/09/10 11:00:41;;;;;;;6.00;4.45;;;;;;;;;;4804397;29;20272;-89
2023/09/10 11:03:53;;;;;;;6.43;4.05;;;;;;;;;;4802547;29;20188;-91
2023/09/10 11:07:17;;;;;;;6.70;4.50;;;;;;;;;;4802148;30;20270;-90
2023/09/10 11:10:44;;;;;;;7.65;4.30;;;;;;;;;;4807450;30;20208;-91
2023/09/10 11:14:01;;;;;;;7.95;4.63;;;;;;;;;;4799561;29;20664;-90
2023/09/10 11:17:23;;;;;;;5.65;4.32;;;;;;;;;;4801453;30;20246;-90
2023/09/10 11:21:03;;;;;;;9.48;4.43;;;;;;;;;;4804145;30;20193;-89
2023/09/10 11:24:26;;;;;;;5.70;4.18;;;;;;;;;;4800841;30;20192;-92
2023/09/10 11:27:40;;;;;;;6.38;4.30;;;;;;;;;;4801988;29;20255;-92
2023/09/10 11:30:52;;;;;;;5.43;4.20;;;;;;;;;;4802229;30;20220;-91
2023/09/10 11:34:20;;;;;;;6.55;4.10;;;;;;;;;;4798880;30;20195;-87
2023/09/10 11:37:35;;;;;;;4.90;3.80;;;;;;;;;;4801775;29;20227;-90
2023/09/10 11:40:47;;;;;;;7.13;3.97;;;;;;;;;;4801597;29;20196;-92
2023/09/10 11:44:01;;;;;;;6.03;3.78;;;;;;;;;;4801838;29;20192;-90
2023/09/10 11:47:13;;;;;;;5.22;3.65;;;;;;;;;;4803865;29;20305;-88
2023/09/10 11:50:26;;;;;;;5.40;3.92;;;;;;;;;;4802262;29;20249;-91
2023/09/10 11:53:38;;;;;;;5.80;3.53;;;;;;;;;;4801986;29;20196;-90
2023/09/10 11:56:51;;;;;;;7.97;3.88;;;;;;;;;;4803070;29;20200;-92
2023/09/10 12:00:06;;;;;;;6.40;3.65;;;;;;;;;;4802000;30;20293;-90
2023/09/10 12:03:24;;;;;;;7.05;3.65;;;;;;;;;;4802151;29;20204;-91
2023/09/10 12:06:36;;;;;;;5.43;3.67;;;;;;;;;;4801147;29;20326;-91
2023/09/10 12:09:48;;;;;;;6.35;3.90;;;;;;;;;;4799070;29;20200;-89
2023/09/10 12:13:03;;;;;;;8.57;4.10;;;;;;;;;;4800513;29;20192;-90
2023/09/10 12:16:16;;;;;;;5.55;3.50;;;;;;;;;;4800824;29;20208;-92
2023/09/10 12:19:28;;;;;;;6.13;3.28;;;;;;;;;;4801571;29;20217;-90
2023/09/10 12:22:39;;;;;;;5.28;3.60;;;;;;;;;;4800410;30;20199;-91
2023/09/10 12:25:54;;;;;;;6.78;3.65;;;;;;;;;;4799300;29;20404;-89
2023/09/10 12:29:06;;;;;;;5.50;3.85;;;;;;;;;;4801273;29;20200;-90
2023/09/10 12:32:19;;;;;;;7.95;3.67;;;;;;;;;;4798235;29;20269;-91
2023/09/10 12:35:31;;;;;;;4.72;3.60;;;;;;;;;;4798631;29;20191;-91
2023/09/10 12:38:43;;;;;;;4.53;3.53;;;;;;;;;;4799747;29;20230;-92
2023/09/10 12:42:01;;;;;;;8.38;4.13;;;;;;;;;;4802264;29;20196;-92
2023/09/10 12:45:13;;;;;;;4.88;3.45;;;;;;;;;;4798884;29;20583;-92
2023/09/10 12:48:26;;;;;;;7.95;3.90;;;;;;;;;;4798862;30;20223;-93
2023/09/10 12:51:38;;;;;;;6.47;3.53;;;;;;;;;;4797333;29;20218;-92
2023/09/10 12:54:49;;;;;;;5.80;3.80;;;;;;;;;;4798596;29;20196;-90
2023/09/10 12:58:00;;;;;;;4.75;3.55;;;;;;;;;;4799561;30;20208;-89
2023/09/10 13:01:14;;;;;;;4.85;3.92;;;;;;;;;;4799134;29;20200;-91
2023/09/10 13:04:28;;;;;;;6.00;3.75;;;;;;;;;;4799560;29;20194;-91
2023/09/10 13:07:39;;;;;;;8.18;3.95;;;;;;;;;;4798206;29;20228;-93
2023/09/10 13:10:52;;;;;;;5.75;4.20;;;;;;;;;;4798984;29;20207;-90
2023/09/10 13:14:04;;;;;;;7.00;3.97;;;;;;;;;;4799106;29;20233;-91
2023/09/10 13:17:18;;;;;;;6.88;3.72;;;;;;;;;;4799863;29;20226;-90
2023/09/10 13:20:35;;;;;;;6.72;3.40;;;;;;;;;;4798360;30;20203;-91
2023/09/10 13:23:47;;;;;;;5.95;3.30;;;;;;;;;;4798917;30;20235;-92
2023/09/10 13:26:58;;;;;;;6.35;3.97;;;;;;;;;;4799928;29;20198;-92
2023/09/10 13:30:12;;;;;;;4.47;3.40;;;;;;;;;;4798265;30;20256;-92
2023/09/10 13:33:24;;;;;;;3.75;3.20;;;;;;;;;;4799516;29;20208;-92
2023/09/10 13:36:39;;;;;;;6.38;3.40;;;;;;;;;;4798088;29;20212;-90
2023/09/10 13:39:51;;;;;;;5.45;3.03;;;;;;;;;;4800607;30;20277;-91
2023/09/10 13:43:03;;;;;;;4.63;3.63;;;;;;;;;;4798942;29;20199;-91
2023/09/10 13:46:15;;;;;;;6.00;3.13;;;;;;;;;;4797818;29;20200;-88
2023/09/10 13:49:27;;;;;;;6.05;3.40;;;;;;;;;;4798346;29;20299;-91
2023/09/10 13:52:40;;;;;;;4.43;3.25;;;;;;;;;;4799037;30;20196;-91
2023/09/10 13:55:52;;;;;;;4.93;3.63;;;;;;;;;;4800249;29;20295;-91
2023/09/10 13:59:05;;;;;;;6.57;3.30;;;;;;;;;;4799272;29;20204;-93
2023/09/10 14:02:17;;;;;;;5.47;3.63;;;;;;;;;;4797647;30;20204;-92
2023/09/10 14:05:31;;;;;;;5.88;3.20;;;;;;;;;;4801513;29;20205;-90
2023/09/10 14:08:45;;;;;;;5.07;3.17;;;;;;;;;;4801494;29;20231;-90
2023/09/10 14:11:57;;;;;;;7.68;3.63;;;;;;;;;;4798791;29;20218;-91
2023/09/10 14:15:09;;;;;;;6.85;3.50;;;;;;;;;;4798729;29;20196;-91
2023/09/10 14:18:21;;;;;;;6.53;4.05;;;;;;;;;;4798091;30;20199;-89
2023/09/10 14:21:34;;;;;;;6.35;3.55;;;;;;;;;;4802125;30;20180;-91
2023/09/10 14:24:48;;;;;;;5.03;3.22;;;;;;;;;;4800582;30;20200;-92
2023/09/10 14:28:01;;;;;;;3.80;2.72;;;;;;;;;;4804378;29;20230;-90
2023/09/10 14:31:15;;;;;;;3.85;3.05;;;;;;;;;;4805166;30;20212;-92
2023/09/10 14:34:27;;;;;;;3.67;2.97;;;;;;;;;;4804318;29;20230;-91
2023/09/10 14:37:39;;;;;;;5.00;3.40;;;;;;;;;;4805651;29;20222;-92
2023/09/10 14:40:52;;;;;;;4.20;2.90;;;;;;;;;;4803336;29;20230;-90
2023/09/10 14:44:04;;;;;;;5.80;3.13;;;;;;;;;;4801972;29;20192;-92
2023/09/10 14:47:16;;;;;;;4.88;3.55;;;;;;;;;;4802754;29;20192;-90
2023/09/10 14:50:28;;;;;;;5.10;3.70;;;;;;;;;;4803445;29;20246;-93
2023/09/10 14:53:40;;;;;;;4.97;3.25;;;;;;;;;;4803184;29;20223;-90
2023/09/10 14:56:57;;;;;;;5.30;2.97;;;;;;;;;;4804256;29;20196;-90
2023/09/10 15:00:09;;;;;;;4.50;3.25;;;;;;;;;;4802256;30;20188;-91
2023/09/10 15:03:21;;;;;;;4.93;2.78;;;;;;;;;;4803988;29;20257;-91
2023/09/10 15:06:33;;;;;;;5.88;3.20;;;;;;;;;;4802806;29;20336;-91
2023/09/10 15:09:48;;;;;;;6.72;3.33;;;;;;;;;;4802065;29;20234;-92
2023/09/10 15:13:02;;;;;;;7.70;3.88;;;;;;;;;;4802306;29;20220;-91
2023/09/10 15:16:14;;;;;;;6.53;3.70;;;;;;;;;;4803175;30;20203;-91
2023/09/10 15:19:26;;;;;;;6.32;3.83;;;;;;;;;;4803718;29;20544;-90
2023/09/10 15:22:38;;;;;;;5.93;3.10;;;;;;;;;;4802427;29;20192;-91
2023/09/10 15:25:50;;;;;;;5.47;3.63;;;;;;;;;;4806467;29;20188;-89
2023/09/10 15:29:04;;;;;;;5.47;3.33;;;;;;;;;;4805929;29;20235;-92
2023/09/10 15:32:15;;;;;;;5.13;3.38;;;;;;;;;;4807082;29;20553;-89
2023/09/10 15:35:31;;;;;;;6.72;4.05;;;;;;;;;;4809226;29;20196;-90
2023/09/10 15:38:42;;;;;;;7.10;3.30;;;;;;;;;;4806549;29;20230;-89
2023/09/10 15:41:54;;;;;;;5.63;3.17;;;;;;;;;;4807011;30;20192;-91
2023/09/10 15:45:09;;;;;;;6.00;3.50;;;;;;;;;;4806376;29;20200;-91
2023/09/10 15:48:25;;;;;;;7.68;3.42;;;;;;;;;;4804914;30;20224;-91
2023/09/10 15:51:36;;;;;;;7.70;3.65;;;;;;;;;;4806062;29;20192;-91
2023/09/10 15:54:48;;;;;;;7.43;3.22;;;;;;;;;;4806168;30;20285;-90
2023/09/10 15:58:00;;;;;;;9.15;3.25;;;;;;;;;;4805769;29;20216;-91
2023/09/10 16:01:14;;;;;;;7.93;4.40;;;;;;;;;;4805615;29;20219;-91
2023/09/10 16:04:25;;;;;;;5.57;3.97;;;;;;;;;;4807013;29;20283;-92
2023/09/10 16:07:38;;;;;;;6.15;4.05;;;;;;;;;;4804985;29;20192;-91
2023/09/10 16:10:50;;;;;;;6.40;3.63;;;;;;;;;;4806196;29;20212;-91
2023/09/10 16:14:03;;;;;;;6.18;3.40;;;;;;;;;;4805783;29;20310;-89
2023/09/10 16:17:17;;;;;;;8.25;3.80;;;;;;;;;;4805930;29;20258;-92
2023/09/10 16:20:28;;;;;;;8.93;4.15;;;;;;;;;;4805945;30;20283;-90
2023/09/10 16:23:40;;;;;;;6.18;4.00;;;;;;;;;;4806304;29;20185;-91
2023/09/10 16:26:52;;;;;;;7.60;4.50;;;;;;;;;;4805621;29;20273;-91
2023/09/10 16:30:04;;;;;;;6.85;3.90;;;;;;;;;;4806014;29;20216;-90
2023/09/10 16:33:20;;;;;;;6.85;4.10;;;;;;;;;;4806753;29;20272;-90
2023/09/10 16:36:33;;;;;;;8.80;4.82;;;;;;;;;;4806636;29;20208;-91
2023/09/10 16:39:46;;;;;;;10.00;4.20;;;;;;;;;;4807180;29;20203;-90
2023/09/10 16:42:57;;;;;;;8.43;4.00;;;;;;;;;;4808418;29;20207;-89
2023/09/10 16:46:09;;;;;;;10.15;4.38;;;;;;;;;;4807217;29;20197;-90
2023/09/10 16:49:23;;;;;;;11.68;4.70;;;;;;;;;;4804566;29;20224;-90
2023/09/10 16:52:39;;;;;;;8.25;4.65;;;;;;;;;;4801439;29;20265;-89
2023/09/10 16:55:51;;;;;;;7.47;4.40;;;;;;;;;;4800229;29;20189;-89
2023/09/10 16:59:12;;;;;;;7.97;4.25;;;;;;;;;;4802476;29;20220;-91
2023/09/10 17:11:41;;;;;;;10.15;4.65;;;;;;;;;;5292612;24;20724;-90
2023/09/10 17:14:53;;;;;;;11.32;5.07;;;;;;;;;;4800139;29;20246;-89
2023/09/10 17:18:06;;;;;;;10.18;4.93;;;;;;;;;;4801433;29;20196;-90
2023/09/10 17:21:17;;;;;;;7.03;4.32;;;;;;;;;;4801520;29;20559;-90
2023/09/10 17:24:30;;;;;;;10.98;4.88;;;;;;;;;;4802555;29;20192;-91
2023/09/10 17:27:48;;;;;;;8.70;5.13;;;;;;;;;;4801979;29;20204;-89
2023/09/10 17:31:00;;;;;;;7.28;4.97;;;;;;;;;;4804275;29;20200;-90
2023/09/10 17:34:12;;;;;;;10.07;4.60;;;;;;;;;;4803753;29;20205;-89
2023/09/10 17:37:24;;;;;;;10.75;5.10;;;;;;;;;;4802691;30;20196;-90
2023/09/10 17:40:36;;;;;;;7.78;5.50;;;;;;;;;;4800424;30;20291;-89
2023/09/10 17:43:49;;;;;;;11.05;5.68;;;;;;;;;;4802075;29;20189;-91
2023/09/10 17:47:05;;;;;;;9.70;5.13;;;;;;;;;;4803316;29;20201;-90
2023/09/10 17:50:20;;;;;;;9.02;5.40;;;;;;;;;;4805330;29;20224;-90
2023/09/10 17:53:33;;;;;;;14.93;5.50;;;;;;;;;;4802154;30;20216;-90
2023/09/10 17:56:45;;;;;;;6.88;4.60;;;;;;;;;;4804080;29;20199;-91
2023/09/10 18:00:03;;;;;;;9.90;5.40;;;;;;;;;;4802367;29;20247;-90
2023/09/10 18:03:18;;;;;;;8.98;5.15;;;;;;;;;;4803329;29;20331;-87
2023/09/10 18:06:31;;;;;;;10.07;5.32;;;;;;;;;;4803075;30;20279;-90
2023/09/10 18:09:44;;;;;;;6.82;5.18;;;;;;;;;;4802331;29;20346;-90
2023/09/10 18:13:00;;;;;;;11.32;5.50;;;;;;;;;;4803255;30;20220;-88
2023/09/10 18:16:21;;;;;;;9.32;4.97;;;;;;;;;;4800542;30;20201;-90
2023/09/10 18:22:58;;;;;;;13.27;5.65;;;;;;;;;;4801331;29;20224;-89
2023/09/10 18:26:11;;;;;;;7.68;5.43;;;;;;;;;;4800992;29;20217;-90
2023/09/10 18:29:23;;;;;;;10.80;5.35;;;;;;;;;;4799829;30;20236;-91
2023/09/10 18:32:38;;;;;;;8.60;5.22;;;;;;;;;;4799724;29;20228;-91
2023/09/10 18:35:50;;;;;;;9.35;5.25;;;;;;;;;;4798851;30;20265;-91
2023/09/10 18:39:02;;;;;;;12.35;5.20;;;;;;;;;;4798848;29;20283;-90
2023/09/10 18:42:15;;;;;;;11.35;5.40;;;;;;;;;;4806984;29;20744;-89
2023/09/10 18:45:29;;;;;;;11.32;5.55;;;;;;;;;;4806555;29;20323;-90
2023/09/10 18:48:41;;;;;;;10.15;5.32;;;;;;;;;;4808244;29;20224;-91
2023/09/10 18:52:07;;;;;;;8.75;5.10;;;;;;;;;;4806781;29;20192;-87
2023/09/10 18:55:18;;;;;;;11.40;5.45;;;;;;;;;;4804705;30;20227;-92
2023/09/10 18:58:34;;;;;;;9.60;5.60;;;;;;;;;;4805901;29;20213;-90
2023/09/10 19:01:46;;;;;;;13.30;5.50;;;;;;;;;;4811149;30;20214;-92
2023/09/10 19:05:00;;;;;;;13.02;5.68;;;;;;;;;;4806757;29;20197;-89
2023/09/10 19:08:14;;;;;;;11.15;5.38;;;;;;;;;;4809955;29;20200;-89
2023/09/10 19:11:26;;;;;;;10.40;5.55;;;;;;;;;;4806223;30;20280;-91
2023/09/10 19:14:38;;;;;;;10.27;5.60;;;;;;;;;;4804615;30;20208;-89
2023/09/10 19:17:51;;;;;;;8.68;5.68;;;;;;;;;;4808527;30;20237;-90
2023/09/10 19:21:06;;;;;;;9.95;5.90;;;;;;;;;;4804811;30;20197;-90
2023/09/10 19:24:18;;;;;;;12.15;6.13;;;;;;;;;;4802045;30;20319;-90
2023/09/10 19:27:29;;;;;;;11.25;5.85;;;;;;;;;;4802038;30;20197;-90
2023/09/10 19:30:40;;;;;;;9.82;6.03;;;;;;;;;;4801788;30;20228;-87
2023/09/10 19:33:53;;;;;;;10.32;6.07;;;;;;;;;;4800442;30;20204;-89
2023/09/10 19:37:06;;;;;;;11.75;6.65;;;;;;;;;;4801449;30;20201;-90
2023/09/10 19:40:19;;;;;;;14.75;6.85;;;;;;;;;;4803005;30;20230;-88
2023/09/10 19:43:30;;;;;;;13.98;6.63;;;;;;;;;;4803258;29;20210;-87
2023/09/10 19:46:42;;;;;;;14.02;7.20;;;;;;;;;;4806762;29;20257;-91
2023/09/10 19:49:56;;;;;;;12.75;6.95;;;;;;;;;;4787267;30;20236;-89
2023/09/10 19:53:10;;;;;;;11.40;6.47;;;;;;;;;;4798453;29;20197;-90
2023/09/10 19:56:21;;;;;;;11.73;6.88;;;;;;;;;;4803936;29;20208;-90
2023/09/10 19:59:34;;;;;;;12.15;6.88;;;;;;;;;;4798469;29;20317;-90
2023/09/10 20:02:45;;;;;;;9.55;6.00;;;;;;;;;;4804096;29;20280;-89
2023/09/10 20:05:57;;;;;;;10.13;6.40;;;;;;;;;;4806578;29;20193;-89
2023/09/10 20:09:10;;;;;;;13.05;6.97;;;;;;;;;;4804887;29;20862;-88
2023/09/10 20:12:22;;;;;;;13.30;6.75;;;;;;;;;;4801911;29;20247;-90
2023/09/10 20:15:42;;;;;;;14.60;7.13;;;;;;;;;;4784046;29;20205;-90
2023/09/10 20:18:54;;;;;;;13.25;6.90;;;;;;;;;;4784394;29;20182;-89
2023/09/10 20:22:06;;;;;;;13.15;7.28;;;;;;;;;;4784021;29;20206;-91
2023/09/10 20:25:21;;;;;;;10.82;6.65;;;;;;;;;;4787982;29;20279;-91
2023/09/10 20:28:40;;;;;;;15.35;6.60;;;;;;;;;;4789358;29;20793;-93
2023/09/10 20:31:52;;;;;;;12.10;7.18;;;;;;;;;;4790081;29;20201;-94
2023/09/10 20:35:05;;;;;;;11.85;7.05;;;;;;;;;;4786008;29;20201;-93